Ladore — HBY4456 — position and weather

sailwx.info

Track history (hours):
 
Tides and Currents Weather Stations Pressure Air Temp Water Temp Dewpoint Dewpoint Depression Visibility Wind Speed Wind Dir Waves Ship Positions

Ladore

Last reported at 2015-Aug-04 04:33 UTC. Time now 2015-Aug-30 01:41 UTC.
Position N 41°12' E 001°54'.
Warning: this ship's position is 25 days out of date.

Length 17 m.

Type: Sailing vessel. MMSI: 269102720.

Date/timePositionNaut miles runAvg speedWind from/ knotsBaromVisibWave heightAir tempDewpointWater temp
2015-Aug-04 04:33N 41°12' E 001°54'6 5.8
2015-Aug-04 03:30N 41°06' E 001°53'7 6.6
2015-Aug-04 02:26N 40°59' E 001°51'7 6.1
2015-Aug-04 01:19N 40°52' E 001°49'5 6.0
2015-Aug-04 00:32N 40°48' E 001°49'6 6.5
2015-Aug-03 23:33N 40°41' E 001°48'7 6.5
2015-Aug-03 22:32N 40°35' E 001°47'6 6.5
2015-Aug-03 21:33N 40°28' E 001°46'7 6.5
2015-Aug-03 20:30N 40°21' E 001°45'6 6.6
2015-Aug-03 19:32N 40°15' E 001°44'7 6.6
2015-Aug-03 18:32N 40°09' E 001°43'7 6.7
2015-Aug-03 17:31N 40°02' E 001°41'6 6.5
2015-Aug-03 16:33N 39°56' E 001°40'6 6.5
2015-Aug-03 15:33N 39°49' E 001°39'6 6.2
2015-Aug-03 14:33N 39°43' E 001°38'15 6.1
2015-Aug-03 12:04N 39°28' E 001°35'4 6.5
2015-Aug-03 11:23N 39°24' E 001°34'  
2015-Jul-29 17:32N 38°45' E 001°26'0 0.0
2015-Jul-29 16:29N 38°45' E 001°26'0 0.0
2015-Jul-29 15:31N 38°45' E 001°26'0 0.0
2015-Jul-29 14:30N 38°45' E 001°26'  
Track history (hours):
 
Tides and Currents Weather Stations Pressure Air Temp Water Temp Dewpoint Dewpoint Depression Visibility Wind Speed Wind Dir Waves Ship Positions

Ladore

Last reported at 2015-Aug-04 04:33 UTC. Time now 2015-Aug-30 01:41 UTC.
Position N 41°12' E 001°54'.
Warning: this ship's position is 25 days out of date.

Length 17 m.

Type: Sailing vessel. MMSI: 269102720.

Date/timePositionNaut miles runAvg speedWind from/ knotsBaromVisibWave heightAir tempDewpointWater temp
2015-Aug-04 04:33N 41°12' E 001°54'6 5.8
2015-Aug-04 03:30N 41°06' E 001°53'7 6.6
2015-Aug-04 02:26N 40°59' E 001°51'7 6.1
2015-Aug-04 01:19N 40°52' E 001°49'5 6.0
2015-Aug-04 00:32N 40°48' E 001°49'6 6.5
2015-Aug-03 23:33N 40°41' E 001°48'7 6.5
2015-Aug-03 22:32N 40°35' E 001°47'6 6.5
2015-Aug-03 21:33N 40°28' E 001°46'7 6.5
2015-Aug-03 20:30N 40°21' E 001°45'6 6.6
2015-Aug-03 19:32N 40°15' E 001°44'7 6.6
2015-Aug-03 18:32N 40°09' E 001°43'7 6.7
2015-Aug-03 17:31N 40°02' E 001°41'6 6.5
2015-Aug-03 16:33N 39°56' E 001°40'6 6.5
2015-Aug-03 15:33N 39°49' E 001°39'6 6.2
2015-Aug-03 14:33N 39°43' E 001°38'15 6.1
2015-Aug-03 12:04N 39°28' E 001°35'4 6.5
2015-Aug-03 11:23N 39°24' E 001°34'  
2015-Jul-29 17:32N 38°45' E 001°26'0 0.0
2015-Jul-29 16:29N 38°45' E 001°26'0 0.0
2015-Jul-29 15:31N 38°45' E 001°26'0 0.0
2015-Jul-29 14:30N 38°45' E 001°26'  

Dump ship's entire track history